createdAt,value
2019-04-07T00:01:17.564Z,15.50
2019-04-07T00:03:46.317Z,15.03
2019-04-07T00:06:14.948Z,15.77
2019-04-07T00:08:43.689Z,15.87
2019-04-07T00:11:31.661Z,15.83
2019-04-07T00:14:00.327Z,17.50
2019-04-07T00:16:28.958Z,17.57
2019-04-07T00:18:57.843Z,17.70
2019-04-07T00:21:27.114Z,18.30
2019-04-07T00:23:56.148Z,18.80
2019-04-07T00:26:24.914Z,19.40
2019-04-07T00:28:53.657Z,20.80
2019-04-07T00:31:22.830Z,17.53
2019-04-07T00:33:51.655Z,19.47
2019-04-07T00:36:39.734Z,18.90
2019-04-07T00:39:09.473Z,20.10
2019-04-07T00:41:38.677Z,20.73
2019-04-07T00:44:18.038Z,19.53
2019-04-07T00:46:46.591Z,19.20
2019-04-07T00:49:15.776Z,19.73
2019-04-07T00:51:44.437Z,18.33
2019-04-07T00:54:32.676Z,15.77
2019-04-07T00:57:01.193Z,14.97
2019-04-07T00:59:29.793Z,16.07
2019-04-07T01:02:17.845Z,16.63
2019-04-07T01:04:47.196Z,18.70
2019-04-07T01:07:15.879Z,17.20
2019-04-07T01:09:45.290Z,19.57
2019-04-07T01:12:14.001Z,21.17
2019-04-07T01:14:43.325Z,19.30
2019-04-07T01:17:12.552Z,20.27
2019-04-07T01:19:41.526Z,19.03
2019-04-07T01:22:10.137Z,18.00
2019-04-07T01:24:58.514Z,19.17
2019-04-07T01:27:46.662Z,18.63
2019-04-07T01:30:16.065Z,14.53
2019-04-07T01:32:44.764Z,17.60
2019-04-07T01:35:13.597Z,16.17
2019-04-07T01:37:42.866Z,18.40
2019-04-07T01:40:11.834Z,17.50
2019-04-07T01:43:04.475Z,19.77
2019-04-07T01:45:57.130Z,19.63
2019-04-07T01:48:30.299Z,22.47
2019-04-07T01:51:04.869Z,22.13
2019-04-07T01:53:41.073Z,23.37
2019-04-07T01:56:23.463Z,20.43
2019-04-07T01:58:59.173Z,19.87
2019-04-07T02:01:38.525Z,19.57
2019-04-07T02:04:09.345Z,20.23
2019-04-07T02:06:56.417Z,18.70
2019-04-07T02:09:45.162Z,18.50
2019-04-07T02:12:18.147Z,16.40
2019-04-07T02:14:48.573Z,14.03
2019-04-07T02:17:21.962Z,13.33
2019-04-07T02:19:55.933Z,15.27
2019-04-07T02:26:08.604Z,17.53
2019-04-07T02:28:41.788Z,16.97
2019-04-07T02:31:34.445Z,17.80
2019-04-07T02:34:27.875Z,18.60
2019-04-07T02:37:02.954Z,17.30
2019-04-07T02:39:33.091Z,17.53
2019-04-07T02:45:13.947Z,16.37
2019-04-07T02:48:01.249Z,16.47
2019-04-07T02:50:37.423Z,16.60
2019-04-07T02:53:07.772Z,16.93
2019-04-07T02:55:56.874Z,17.67
2019-04-07T02:58:27.313Z,16.53
2019-04-07T03:01:17.692Z,16.80
2019-04-07T03:04:04.809Z,16.77
2019-04-07T03:09:50.523Z,16.90
2019-04-07T03:12:56.407Z,17.03
2019-04-07T03:15:46.273Z,17.73
2019-04-07T03:18:44.597Z,16.53
2019-04-07T03:21:38.162Z,17.63
2019-04-07T03:24:28.706Z,18.50
2019-04-07T03:27:15.738Z,18.43
2019-04-07T03:29:49.439Z,17.73
2019-04-07T03:32:45.632Z,19.23
2019-04-07T03:35:34.838Z,19.37
2019-04-07T03:38:05.001Z,17.67
2019-04-07T03:40:54.985Z,18.63
2019-04-07T03:43:25.555Z,19.13
2019-04-07T03:46:05.930Z,18.07
2019-04-07T03:48:48.476Z,18.57
2019-04-07T03:54:14.195Z,18.67
2019-04-07T03:56:47.854Z,17.90
2019-04-07T03:59:18.311Z,17.40
2019-04-07T04:01:57.673Z,18.17
2019-04-07T04:04:44.417Z,19.70
2019-04-07T04:07:22.885Z,18.07
2019-04-07T04:09:55.898Z,18.63
2019-04-07T04:12:29.993Z,18.47
2019-04-07T04:15:03.566Z,18.07
2019-04-07T04:17:32.744Z,18.33
2019-04-07T04:20:01.526Z,17.73
2019-04-07T04:22:30.808Z,18.73
2019-04-07T04:25:19.175Z,17.63
2019-04-07T04:27:48.619Z,17.80
2019-04-07T04:30:19.028Z,18.97
2019-04-07T04:32:47.819Z,18.17
2019-04-07T04:35:16.997Z,17.20
2019-04-07T04:37:51.421Z,17.87
2019-04-07T04:40:17.786Z,17.13
2019-04-07T04:42:46.579Z,18.53
2019-04-07T04:45:34.583Z,18.57
2019-04-07T04:48:03.137Z,21.07
2019-04-07T04:50:51.132Z,20.73
2019-04-07T04:53:39.361Z,20.60
2019-04-07T04:56:07.995Z,21.17
2019-04-07T04:58:36.622Z,23.60
2019-04-07T05:01:06.257Z,19.93
2019-04-07T05:03:34.959Z,19.00
2019-04-07T05:06:03.923Z,17.80
2019-04-07T05:08:32.627Z,18.50
2019-04-07T05:11:01.642Z,17.43
2019-04-07T05:13:30.607Z,19.07
2019-04-07T05:15:59.478Z,17.50
2019-04-07T05:18:28.149Z,17.80
2019-04-07T05:20:57.506Z,18.17
2019-04-07T05:23:26.752Z,19.40
2019-04-07T05:25:55.715Z,19.03
2019-04-07T05:28:24.438Z,19.73
2019-04-07T05:31:12.493Z,20.53
2019-04-07T05:33:41.180Z,19.53
2019-04-07T05:36:10.427Z,19.93
2019-04-07T05:38:39.514Z,19.23
2019-04-07T05:41:08.453Z,19.13
2019-04-07T05:43:37.010Z,19.23
2019-04-07T05:46:07.355Z,19.83
2019-04-07T05:48:35.827Z,19.27
2019-04-07T05:51:04.491Z,18.67
2019-04-07T05:53:33.327Z,19.10
2019-04-07T05:56:02.226Z,17.63
2019-04-07T05:58:30.897Z,17.33
2019-04-07T06:01:00.235Z,18.27
2019-04-07T06:03:48.310Z,16.67
2019-04-07T06:06:19.061Z,17.73
2019-04-07T06:08:48.610Z,17.83
2019-04-07T06:11:36.844Z,18.27
2019-04-07T06:14:05.748Z,18.20
2019-04-07T06:16:34.436Z,19.37
2019-04-07T06:19:07.879Z,18.30
2019-04-07T06:21:34.846Z,18.00
2019-04-07T06:24:03.584Z,18.63
2019-04-07T06:26:32.991Z,18.93
2019-04-07T06:29:01.804Z,19.00
2019-04-07T06:31:49.839Z,17.67
2019-04-07T06:34:18.518Z,19.10
2019-04-07T06:36:51.772Z,19.30
2019-04-07T06:39:19.272Z,20.53
2019-04-07T06:41:47.907Z,24.90
2019-04-07T06:44:35.793Z,25.27
2019-04-07T06:47:06.524Z,24.50
2019-04-07T06:49:37.111Z,23.40
2019-04-07T06:52:13.792Z,23.47
2019-04-07T06:54:55.987Z,22.60
2019-04-07T06:57:36.735Z,21.60
2019-04-07T07:00:22.845Z,20.20
2019-04-07T07:02:54.387Z,21.73
2019-04-07T07:05:45.450Z,22.57
2019-04-07T07:08:16.922Z,21.33
2019-04-07T07:10:53.193Z,20.77
2019-04-07T07:13:43.137Z,20.80
2019-04-07T07:16:30.153Z,21.37
2019-04-07T07:19:18.457Z,19.70
2019-04-07T07:21:49.042Z,19.83
2019-04-07T07:24:22.501Z,19.73
2019-04-07T07:27:10.113Z,19.50
2019-04-07T07:29:37.764Z,18.70
2019-04-07T07:32:06.471Z,18.97
2019-04-07T07:34:35.760Z,18.93
2019-04-07T07:37:05.158Z,19.07
2019-04-07T07:39:34.064Z,19.13
2019-04-07T07:42:24.127Z,18.57
2019-04-07T07:45:13.682Z,18.33
2019-04-07T07:47:42.645Z,20.20
2019-04-07T07:50:12.112Z,20.37
2019-04-07T07:52:40.691Z,18.43
2019-04-07T07:55:09.902Z,18.93
2019-04-07T07:57:38.594Z,19.60
2019-04-07T08:00:08.428Z,19.50
2019-04-07T08:02:37.187Z,18.13
2019-04-07T08:05:09.309Z,19.37
2019-04-07T08:07:38.031Z,27.07
2019-04-07T08:10:08.590Z,20.07
2019-04-07T08:12:37.285Z,19.30
2019-04-07T08:15:08.084Z,19.63
2019-04-07T08:17:36.765Z,18.20
2019-04-07T08:20:07.798Z,18.80
2019-04-07T08:22:42.376Z,19.07
2019-04-07T08:25:07.560Z,17.03
2019-04-07T08:27:36.161Z,17.73
2019-04-07T08:30:11.840Z,16.63
2019-04-07T08:32:42.090Z,18.03
2019-04-07T08:35:11.183Z,15.83
2019-04-07T08:37:40.507Z,16.13
2019-04-07T08:40:09.491Z,17.03
2019-04-07T08:42:39.179Z,17.57
2019-04-07T08:45:08.255Z,16.63
2019-04-07T08:47:56.389Z,16.63
2019-04-07T08:50:27.675Z,16.93
2019-04-07T08:52:55.416Z,17.37
2019-04-07T08:55:24.239Z,17.63
2019-04-07T08:57:52.997Z,17.93
2019-04-07T09:00:23.291Z,17.30
2019-04-07T09:03:14.371Z,17.07
2019-04-07T09:05:41.644Z,17.17
2019-04-07T09:08:10.309Z,17.50
2019-04-07T09:10:56.595Z,16.60
2019-04-07T09:13:25.206Z,17.53
2019-04-07T09:16:04.725Z,17.30
2019-04-07T09:18:57.443Z,16.13
2019-04-07T09:21:42.424Z,17.07
2019-04-07T09:24:32.247Z,17.17
2019-04-07T09:27:08.093Z,16.23
2019-04-07T09:29:41.352Z,15.83
2019-04-07T09:32:12.465Z,15.00
2019-04-07T09:34:56.141Z,16.27
2019-04-07T09:37:43.350Z,15.77
2019-04-07T09:40:39.330Z,15.80
2019-04-07T09:43:17.735Z,16.40
2019-04-07T09:46:16.102Z,14.33
2019-04-07T09:48:52.863Z,14.20
2019-04-07T09:51:41.389Z,14.87
2019-04-07T09:54:12.254Z,14.87
2019-04-07T09:59:37.586Z,15.93
2019-04-07T10:02:14.617Z,14.97
2019-04-07T10:04:44.987Z,14.97
2019-04-07T10:07:16.524Z,15.87
2019-04-07T10:10:14.890Z,15.37
2019-04-07T10:13:04.614Z,15.33
2019-04-07T10:15:35.265Z,15.40
2019-04-07T10:18:19.182Z,15.97
2019-04-07T10:20:50.247Z,13.53
2019-04-07T10:23:20.785Z,14.30
2019-04-07T10:26:00.579Z,14.80
2019-04-07T10:28:40.193Z,14.53
2019-04-07T10:31:25.577Z,14.90
2019-04-07T10:34:13.301Z,13.40
2019-04-07T10:37:10.130Z,14.47
2019-04-07T10:39:49.549Z,13.70
2019-04-07T10:45:03.502Z,13.83
2019-04-07T10:48:11.736Z,13.63
2019-04-07T10:50:48.087Z,14.00
2019-04-07T10:53:18.424Z,14.50
2019-04-07T10:55:52.104Z,14.20
2019-04-07T10:58:42.315Z,13.60
2019-04-07T11:01:12.712Z,14.17
2019-04-07T11:03:46.018Z,15.20
2019-04-07T11:06:32.810Z,15.47
2019-04-07T11:09:09.600Z,16.37
2019-04-07T11:11:39.942Z,14.30
2019-04-07T11:14:33.099Z,14.47
2019-04-07T11:17:06.576Z,14.07
2019-04-07T11:22:36.941Z,13.83
2019-04-07T11:25:15.035Z,13.90
2019-04-07T11:27:51.471Z,12.37
2019-04-07T11:30:34.480Z,12.30
2019-04-07T11:33:05.152Z,12.73
2019-04-07T11:35:41.403Z,11.87
2019-04-07T11:38:14.901Z,11.87
2019-04-07T11:40:50.152Z,11.47
2019-04-07T11:43:33.477Z,9.27
2019-04-07T11:46:04.548Z,8.67
2019-04-07T11:48:38.346Z,9.03
2019-04-07T11:51:09.528Z,8.70
2019-04-07T11:53:39.897Z,8.87
2019-04-07T11:56:32.380Z,9.67
2019-04-07T11:59:11.707Z,9.07
2019-04-07T12:01:58.629Z,9.23
2019-04-07T12:04:45.368Z,8.83
2019-04-07T12:07:22.032Z,9.30
2019-04-07T12:09:55.297Z,9.40
2019-04-07T12:12:28.869Z,9.90
2019-04-07T12:15:05.249Z,10.07
2019-04-07T12:17:42.602Z,10.07
2019-04-07T12:20:33.732Z,9.80
2019-04-07T12:23:02.192Z,9.77
2019-04-07T12:25:41.742Z,11.07
2019-04-07T12:28:28.264Z,10.63
2019-04-07T12:31:07.556Z,10.33
2019-04-07T12:33:39.351Z,11.00
2019-04-07T12:36:31.105Z,11.10
2019-04-07T12:39:26.856Z,10.50
2019-04-07T12:42:15.712Z,12.30
2019-04-07T12:44:46.375Z,12.90
2019-04-07T12:47:36.589Z,10.43
2019-04-07T12:50:09.299Z,10.73
2019-04-07T12:52:39.503Z,10.20
2019-04-07T12:55:17.995Z,10.17
2019-04-07T12:57:56.943Z,10.43
2019-04-07T13:00:53.095Z,9.87
2019-04-07T13:03:29.960Z,9.73
2019-04-07T13:06:12.231Z,10.63
2019-04-07T13:08:56.736Z,9.63
2019-04-07T13:11:35.382Z,10.13
2019-04-07T13:14:10.237Z,11.07
2019-04-07T13:17:00.177Z,11.47
2019-04-07T13:19:32.099Z,11.10
2019-04-07T13:22:03.324Z,11.23
2019-04-07T13:24:45.578Z,11.60
2019-04-07T13:27:18.324Z,9.97
2019-04-07T13:29:51.851Z,10.07
2019-04-07T13:32:42.831Z,11.67
2019-04-07T13:35:09.412Z,11.97
2019-04-07T13:37:41.610Z,12.23
2019-04-07T13:40:13.206Z,11.47
2019-04-07T13:43:04.147Z,12.97
2019-04-07T13:45:53.857Z,15.03
2019-04-07T13:48:36.240Z,16.23
2019-04-07T13:51:15.801Z,15.40
2019-04-07T13:53:48.782Z,16.93
2019-04-07T13:56:28.637Z,16.00
2019-04-07T13:59:08.186Z,14.33
2019-04-07T14:01:36.380Z,15.27
2019-04-07T14:04:10.516Z,14.80
2019-04-07T14:06:43.564Z,14.00
2019-04-07T14:09:32.308Z,16.10
2019-04-07T14:12:13.833Z,14.17
2019-04-07T14:14:52.781Z,14.63
2019-04-07T14:17:41.019Z,14.70
2019-04-07T14:20:27.740Z,14.37
2019-04-07T14:22:58.139Z,14.27
2019-04-07T14:25:28.790Z,14.30
2019-04-07T14:28:35.651Z,14.07
2019-04-07T14:31:06.534Z,13.93
2019-04-07T14:33:37.005Z,13.50
2019-04-07T14:36:23.978Z,13.47
2019-04-07T14:38:54.339Z,15.53
2019-04-07T14:41:28.066Z,14.83
2019-04-07T14:43:58.346Z,14.53
2019-04-07T14:46:31.434Z,14.40
2019-04-07T14:49:19.922Z,14.80
2019-04-07T14:52:09.533Z,13.87
2019-04-07T14:54:57.984Z,14.70
2019-04-07T14:57:31.012Z,13.40
2019-04-07T15:00:07.746Z,13.90
2019-04-07T15:02:36.583Z,14.47
2019-04-07T15:05:18.596Z,13.17
2019-04-07T15:10:47.331Z,13.17
2019-04-07T15:13:37.500Z,13.63
2019-04-07T15:16:06.257Z,13.87
2019-04-07T15:18:34.921Z,15.13
2019-04-07T15:21:23.856Z,15.90
2019-04-07T15:23:52.963Z,14.63
2019-04-07T15:26:22.150Z,14.80
2019-04-07T15:28:50.820Z,15.63
2019-04-07T15:31:20.504Z,15.87
2019-04-07T15:33:49.781Z,17.10
2019-04-07T15:36:19.574Z,17.53
2019-04-07T15:38:48.607Z,18.17
2019-04-07T15:41:19.095Z,19.23
2019-04-07T15:46:18.061Z,18.20
2019-04-07T15:48:47.640Z,18.40
2019-04-07T15:51:17.575Z,18.73
2019-04-07T15:53:50.344Z,17.60
2019-04-07T15:56:18.456Z,18.80
2019-04-07T15:58:49.521Z,18.80
2019-04-07T16:01:18.203Z,18.63
2019-04-07T16:03:50.536Z,21.43
2019-04-07T16:06:37.081Z,20.87
2019-04-07T16:09:12.367Z,19.47
2019-04-07T16:11:38.151Z,20.77
2019-04-07T16:14:12.214Z,21.37
2019-04-07T16:16:37.203Z,20.93
2019-04-07T16:19:06.742Z,21.90
2019-04-07T16:21:39.317Z,20.27
2019-04-07T16:24:07.287Z,20.70
2019-04-07T16:26:37.179Z,19.77
2019-04-07T16:29:08.001Z,20.10
2019-04-07T16:31:36.499Z,19.63
2019-04-07T16:34:07.559Z,19.47
2019-04-07T16:36:35.452Z,20.83
2019-04-07T16:39:09.209Z,20.80
2019-04-07T16:41:37.365Z,20.73
2019-04-07T16:44:08.511Z,21.10
2019-04-07T16:46:36.848Z,21.53
2019-04-07T16:49:07.815Z,20.43
2019-04-07T16:51:36.328Z,21.57
2019-04-07T16:54:08.073Z,23.10
2019-04-07T16:56:35.312Z,21.13
2019-04-07T16:59:23.293Z,21.87
2019-04-07T17:01:52.878Z,21.40
2019-04-07T17:04:21.597Z,22.47
2019-04-07T17:06:59.561Z,22.23
2019-04-07T17:09:24.715Z,20.93
2019-04-07T17:11:51.636Z,21.83
2019-04-07T17:14:20.240Z,21.30
2019-04-07T17:16:48.841Z,22.53
2019-04-07T17:19:18.186Z,21.37
2019-04-07T17:21:47.389Z,21.37
2019-04-07T17:24:16.034Z,22.97
2019-04-07T17:26:45.455Z,22.20
2019-04-07T17:29:17.161Z,22.67
2019-04-07T17:31:45.511Z,22.23
2019-04-07T17:34:14.718Z,22.50
2019-04-07T17:36:44.315Z,21.77
2019-04-07T17:39:17.177Z,22.37
2019-04-07T17:41:49.478Z,23.60
2019-04-07T17:44:35.039Z,22.17
2019-04-07T17:50:04.268Z,21.67
2019-04-07T17:52:51.189Z,21.90
2019-04-07T17:55:34.212Z,21.07
2019-04-07T17:58:07.217Z,20.53
2019-04-07T18:00:41.369Z,20.97
2019-04-07T18:03:14.186Z,21.30
2019-04-07T18:06:00.608Z,20.97
2019-04-07T18:08:33.735Z,19.93
2019-04-07T18:11:02.856Z,19.67
2019-04-07T18:13:51.208Z,18.73
2019-04-07T18:16:44.994Z,16.43
2019-04-07T18:22:22.126Z,24.07
2019-04-07T18:24:51.616Z,23.10
2019-04-07T18:27:38.339Z,24.00
2019-04-07T18:30:16.404Z,25.83
2019-04-07T18:32:46.809Z,22.00
2019-04-07T18:35:33.289Z,21.50
2019-04-07T18:38:21.798Z,21.50
2019-04-07T18:41:11.209Z,21.10
2019-04-07T18:43:52.221Z,21.70
2019-04-07T18:46:19.498Z,20.53
2019-04-07T18:48:53.253Z,20.00
2019-04-07T18:51:23.828Z,18.17
2019-04-07T18:54:03.833Z,18.70
2019-04-07T18:56:44.797Z,19.17
2019-04-07T18:59:21.452Z,19.97
2019-04-07T19:01:52.225Z,20.10
2019-04-07T19:04:25.995Z,20.57
2019-04-07T19:06:54.561Z,21.10
2019-04-07T19:12:22.738Z,21.63
2019-04-07T19:15:01.174Z,18.77
2019-04-07T19:17:29.728Z,19.20
2019-04-07T19:20:08.936Z,18.03
2019-04-07T19:22:50.725Z,17.47
2019-04-07T19:25:27.000Z,18.83
2019-04-07T19:28:00.041Z,21.33
2019-04-07T19:30:48.633Z,20.57
2019-04-07T19:33:33.477Z,20.23
2019-04-07T19:36:05.952Z,18.40
2019-04-07T19:38:38.749Z,17.93
2019-04-07T19:41:21.834Z,18.73
2019-04-07T19:43:58.458Z,19.93
2019-04-07T19:46:43.922Z,19.40
2019-04-07T19:49:32.733Z,20.87
2019-04-07T19:52:08.093Z,21.13
2019-04-07T19:57:35.077Z,21.97
2019-04-07T20:00:37.259Z,21.93
2019-04-07T20:03:11.427Z,21.27
2019-04-07T20:05:53.003Z,22.80
2019-04-07T20:08:32.475Z,41.27
2019-04-07T20:11:01.424Z,36.17
2019-04-07T20:13:40.500Z,26.87
2019-04-07T20:16:14.263Z,21.80
2019-04-07T20:18:47.260Z,21.43
2019-04-07T20:21:21.247Z,21.20
2019-04-07T20:24:07.041Z,21.73
2019-04-07T20:26:42.782Z,21.50
2019-04-07T20:29:19.337Z,21.90
2019-04-07T20:34:30.822Z,22.50
2019-04-07T20:37:01.818Z,23.47
2019-04-07T20:39:34.436Z,27.40
2019-04-07T20:42:06.995Z,28.93
2019-04-07T20:44:39.936Z,25.73
2019-04-07T20:47:46.599Z,22.37
2019-04-07T20:50:22.663Z,20.07
2019-04-07T20:52:54.419Z,16.80
2019-04-07T20:55:44.991Z,17.23
2019-04-07T20:58:45.621Z,17.00
2019-04-07T21:01:22.168Z,17.23
2019-04-07T21:03:57.928Z,20.10
2019-04-07T21:06:30.040Z,16.57
2019-04-07T21:09:23.399Z,16.00
2019-04-07T21:12:06.112Z,15.37
2019-04-07T21:15:21.105Z,16.77
2019-04-07T21:17:48.377Z,17.00
2019-04-07T21:23:20.740Z,12.10
2019-04-07T21:25:52.088Z,11.13
2019-04-07T21:28:37.663Z,11.17
2019-04-07T21:31:13.307Z,9.10
2019-04-07T21:33:41.505Z,8.10
2019-04-07T21:36:14.153Z,6.57
2019-04-07T21:38:55.103Z,5.80
2019-04-07T21:41:30.973Z,4.80
2019-04-07T21:44:16.421Z,4.33
2019-04-07T21:47:04.604Z,4.00
2019-04-07T21:49:40.546Z,3.83
2019-04-07T21:52:16.149Z,3.63
2019-04-07T21:54:45.564Z,3.53
2019-04-07T21:57:32.343Z,3.03
2019-04-07T22:00:18.982Z,3.33
2019-04-07T22:02:58.445Z,3.07
2019-04-07T22:05:46.921Z,3.13
2019-04-07T22:08:18.779Z,3.50
2019-04-07T22:10:47.906Z,2.90
2019-04-07T22:13:19.598Z,3.07
2019-04-07T22:15:54.790Z,3.33
2019-04-07T22:18:19.508Z,3.67
2019-04-07T22:20:52.693Z,3.50
2019-04-07T22:23:18.812Z,3.30
2019-04-07T22:25:51.957Z,3.10
2019-04-07T22:28:20.837Z,3.20
2019-04-07T22:30:51.358Z,3.10
2019-04-07T22:33:22.882Z,3.20
2019-04-07T22:35:51.231Z,3.17
2019-04-07T22:38:23.256Z,2.97
2019-04-07T22:40:50.384Z,3.13
2019-04-07T22:43:19.984Z,3.27
2019-04-07T22:45:59.126Z,3.00
2019-04-07T22:48:22.776Z,3.10
2019-04-07T22:50:49.941Z,2.97
2019-04-07T22:53:22.526Z,3.67
2019-04-07T22:55:48.806Z,3.30
2019-04-07T22:58:18.134Z,3.20
2019-04-07T23:00:47.265Z,3.10
2019-04-07T23:03:15.924Z,3.53
2019-04-07T23:05:44.627Z,3.07
2019-04-07T23:08:32.780Z,3.27
2019-04-07T23:11:02.195Z,3.30
2019-04-07T23:13:30.846Z,3.00
2019-04-07T23:16:08.709Z,3.30
2019-04-07T23:18:29.983Z,3.47
2019-04-07T23:20:58.620Z,3.10
2019-04-07T23:23:28.080Z,3.10
2019-04-07T23:25:57.723Z,3.30
2019-04-07T23:28:27.032Z,3.17
2019-04-07T23:30:55.597Z,3.93
2019-04-07T23:33:25.732Z,4.17
2019-04-07T23:36:13.739Z,4.20
2019-04-07T23:38:42.480Z,5.20
2019-04-07T23:41:11.691Z,4.63
2019-04-07T23:43:40.351Z,4.53
2019-04-07T23:46:19.582Z,4.63
2019-04-07T23:48:40.225Z,4.50
2019-04-07T23:51:28.796Z,4.40
2019-04-07T23:54:09.134Z,4.67
2019-04-07T23:56:39.749Z,4.50
2019-04-07T23:59:27.748Z,4.40
